This is the latest recevied weather packets stored in our database for station/object YN1JLX-13. If no packets are shown the sender has not sent any weather packets the latest 10 day(s).
| Time | Temp. | Humidity | Pressure | Rain* | Wind** | Luminosity | Snow |
|---|---|---|---|---|---|---|---|
| 1777653120 | 25.56° C | 59% | 1011 hPa | 0 mm | - | - | - |
| 1777652520 | 26.67° C | 61% | 1011 hPa | 0 mm | - | - | - |
| 1777651920 | 23.33° C | 62% | 1011 hPa | 0 mm | - | - | - |
| 1777651320 | 23.89° C | 62% | 1011 hPa | 0 mm | - | - | - |
| 1777650719 | 23.89° C | 62% | 1011 hPa | 0 mm | - | - | - |
| 1777650118 | 23.89° C | 53% | 1011 hPa | 0 mm | - | - | - |
| 1777649518 | 22.78° C | 59% | 1011 hPa | 0 mm | - | - | - |
| 1777648918 | 22.22° C | 58% | 1011 hPa | 0 mm | - | - | - |
| 1777648318 | 23.33° C | 58% | 1011 hPa | 0 mm | - | - | - |
| 1777647717 | 22.78° C | 59% | 1011 hPa | 0 mm | - | - | - |
| 1777647117 | 23.89° C | 59% | 1011 hPa | 0 mm | - | - | - |
| 1777646517 | 25° C | 60% | 1011 hPa | 0 mm | - | - | - |
| 1777645917 | 20.56° C | 65% | 1011 hPa | 0 mm | - | - | - |
| 1777645317 | 20.56° C | 65% | 1011 hPa | 0 mm | - | - | - |
| 1777644716 | 20.56° C | 65% | 1011 hPa | 0 mm | - | - | - |
| 1777644116 | 21.67° C | 65% | 1011 hPa | 0 mm | - | - | - |
| 1777643516 | 21.11° C | 65% | 1011 hPa | 0 mm | - | - | - |
| 1777642915 | 22.22° C | 65% | 1011 hPa | 0 mm | - | - | - |
| 1777642315 | 21.67° C | 65% | 1011 hPa | 0 mm | - | - | - |
| 1777641714 | 22.78° C | 65% | 1011 hPa | 0 mm | - | - | - |
| 1777641114 | 18.33° C | 83% | 1011 hPa | 0 mm | - | - | - |
| 1777640514 | 18.89° C | 83% | 1011 hPa | 0 mm | - | - | - |
| 1777639914 | 18.33° C | 83% | 1011 hPa | 0 mm | - | - | - |
| 1777639313 | 18.89° C | 83% | 1011 hPa | 0 mm | - | - | - |
| 1777638713 | 18.33° C | 83% | 1010 hPa | 0 mm | - | - | - |
* Rain latest hour (hover to see other rain measurements)
** Current wind speed in m/s (hover to see current wind gust speed)